Time;durP1;ratioP1;P1;durP2;ratioP2;P2;SDS_P1;SDS_P2;PMS_P1;PMS_P2;Temp;Humidity;BMP_temperature;BMP_pressure;BME280_temperature;BME280_humidity;BME280_pressure;Samples;Min_cycle;Max_cycle;Signal;HPM_P1;HPM_P2
2022/01/17 00:02:22;;;;;;;14.05;8.43;;;4.00;99.90;;;;;;5124368;27;20031;-70
2022/01/17 00:04:48;;;;;;;12.25;8.40;;;4.00;99.90;;;;;;5125227;27;20050;-67
2022/01/17 00:07:15;;;;;;;12.30;8.60;;;3.90;99.90;;;;;;5124477;27;20042;-72
2022/01/17 00:09:41;;;;;;;12.07;8.50;;;4.00;99.90;;;;;;5118823;27;20024;-69
2022/01/17 00:12:07;;;;;;;11.43;8.20;;;4.00;99.90;;;;;;5125535;27;20018;-68
2022/01/17 00:14:39;;;;;;;12.85;8.70;;;4.10;99.90;;;;;;5126183;27;20035;-70
2022/01/17 00:17:56;;;;;;;12.48;8.73;;;4.00;99.90;;;;;;5124405;27;20033;-70
2022/01/17 00:19:55;;;;;;;13.70;8.30;;;4.10;99.90;;;;;;5116090;27;20042;-70
2022/01/17 00:22:22;;;;;;;12.60;8.70;;;4.10;99.90;;;;;;5124304;27;20031;-68
2022/01/17 00:24:48;;;;;;;13.85;9.10;;;4.10;99.90;;;;;;5120970;27;20088;-68
2022/01/17 00:27:15;;;;;;;14.60;8.95;;;4.00;99.90;;;;;;5121434;27;20028;-70
2022/01/17 00:29:41;;;;;;;16.92;9.18;;;4.00;99.90;;;;;;5121511;27;20062;-69
2022/01/17 00:32:07;;;;;;;13.55;9.18;;;4.10;99.90;;;;;;5121925;27;20015;-68
2022/01/17 00:34:33;;;;;;;13.73;9.38;;;4.10;99.90;;;;;;5122607;27;20391;-68
2022/01/17 00:36:58;;;;;;;14.07;8.40;;;4.10;99.90;;;;;;5124541;27;20035;-69
2022/01/17 00:39:25;;;;;;;13.68;9.10;;;4.20;99.90;;;;;;5120656;27;20076;-68
2022/01/17 00:41:51;;;;;;;17.45;9.77;;;4.10;99.90;;;;;;5122129;27;20392;-68
2022/01/17 00:44:21;;;;;;;14.07;9.40;;;4.00;99.90;;;;;;5121961;27;20084;-68
2022/01/17 00:46:48;;;;;;;13.55;9.43;;;4.10;99.90;;;;;;5122477;27;20019;-68
2022/01/17 00:49:14;;;;;;;16.23;9.88;;;4.10;99.90;;;;;;5113898;28;20128;-67
2022/01/17 00:51:39;;;;;;;15.07;9.15;;;4.10;99.90;;;;;;5133334;27;20027;-68
2022/01/17 00:54:05;;;;;;;15.48;9.52;;;4.10;99.90;;;;;;5134120;28;20114;-68
2022/01/17 00:56:31;;;;;;;17.42;11.25;;;4.10;99.90;;;;;;5134218;28;20028;-72
2022/01/17 00:58:57;;;;;;;16.38;9.80;;;4.10;99.90;;;;;;5134361;28;20456;-67
2022/01/17 01:01:23;;;;;;;15.48;10.00;;;4.00;99.90;;;;;;5134944;28;20057;-69
2022/01/17 01:03:48;;;;;;;16.92;9.88;;;4.00;99.90;;;;;;5136926;27;20080;-68
2022/01/17 01:06:14;;;;;;;13.80;9.25;;;3.90;99.90;;;;;;5137725;28;20029;-68
2022/01/17 01:08:40;;;;;;;15.25;9.20;;;3.90;99.90;;;;;;5134347;27;20076;-68
2022/01/17 01:11:06;;;;;;;17.15;9.55;;;4.00;99.90;;;;;;5133973;27;20506;-68
2022/01/17 01:13:32;;;;;;;17.48;9.65;;;4.00;99.90;;;;;;5134064;27;20081;-67
2022/01/17 01:16:11;;;;;;;14.32;9.15;;;4.00;99.90;;;;;;5133115;28;20065;-69
2022/01/17 01:18:55;;;;;;;15.60;10.52;;;3.90;99.90;;;;;;5132413;28;20087;-68
2022/01/17 01:29:15;;;;;;;17.88;10.25;;;3.90;99.90;;;;;;5134365;28;20038;-68
2022/01/17 01:31:47;;;;;;;18.17;10.73;;;4.00;99.90;;;;;;5134590;28;20376;-68
2022/01/17 01:34:13;;;;;;;13.80;9.73;;;3.90;99.90;;;;;;5134374;28;20033;-68
2022/01/17 01:36:41;;;;;;;16.42;9.75;;;3.90;99.90;;;;;;5131920;28;20031;-68
2022/01/17 01:39:10;;;;;;;16.30;10.13;;;3.90;99.90;;;;;;5116251;27;20050;-68
2022/01/17 01:41:42;;;;;;;15.52;9.55;;;3.90;99.90;;;;;;5111688;28;20035;-69
2022/01/17 01:44:15;;;;;;;15.43;10.05;;;4.00;99.90;;;;;;5113418;28;20028;-69
2022/01/17 01:46:42;;;;;;;17.30;10.73;;;4.00;99.90;;;;;;5114082;28;20027;-69
2022/01/17 01:49:09;;;;;;;18.23;10.25;;;4.00;99.90;;;;;;5115663;28;20027;-69
2022/01/17 01:51:35;;;;;;;17.50;10.50;;;4.00;99.90;;;;;;5114788;28;20020;-70
2022/01/17 01:54:01;;;;;;;17.60;10.65;;;3.90;99.90;;;;;;5112887;28;20076;-67
2022/01/17 01:56:26;;;;;;;18.38;10.45;;;3.90;99.90;;;;;;5115784;28;20031;-68
2022/01/17 01:58:52;;;;;;;16.67;10.63;;;3.90;99.90;;;;;;5116254;28;20034;-67
2022/01/17 02:01:18;;;;;;;17.13;10.90;;;3.90;99.90;;;;;;5118410;28;20056;-69
2022/01/17 02:03:43;;;;;;;17.45;10.90;;;4.00;99.90;;;;;;5117622;28;20028;-69
2022/01/17 02:06:09;;;;;;;17.13;10.48;;;4.00;99.90;;;;;;5119750;28;20408;-67
2022/01/17 02:08:35;;;;;;;14.50;9.07;;;4.00;99.90;;;;;;5118849;28;20020;-68
2022/01/17 02:11:01;;;;;;;15.32;10.25;;;4.00;99.90;;;;;;5117201;28;20027;-69
2022/01/17 02:13:27;;;;;;;17.17;10.13;;;4.00;99.90;;;;;;5123212;28;20035;-68
2022/01/17 02:16:04;;;;;;;16.25;10.02;;;4.00;99.90;;;;;;5119130;28;20027;-68
2022/01/17 02:18:31;;;;;;;16.90;10.20;;;4.10;99.90;;;;;;5116366;28;20031;-68
2022/01/17 02:23:53;;;;;;;19.63;10.60;;;4.10;99.90;;;;;;5115447;27;20056;-69
2022/01/17 02:26:20;;;;;;;16.92;9.82;;;4.10;99.90;;;;;;5116784;28;20540;-68
2022/01/17 02:28:51;;;;;;;17.60;10.10;;;4.10;99.90;;;;;;5117451;28;20030;-68
2022/01/17 02:31:18;;;;;;;15.82;10.05;;;4.20;99.90;;;;;;5117835;28;20024;-67
2022/01/17 02:33:45;;;;;;;17.25;10.13;;;4.10;99.90;;;;;;5116319;28;20031;-68
2022/01/17 02:36:11;;;;;;;13.35;8.98;;;4.10;99.90;;;;;;5116570;28;20106;-67
2022/01/17 02:38:41;;;;;;;17.90;10.52;;;4.00;99.90;;;;;;5120426;28;20028;-67
2022/01/17 02:41:07;;;;;;;16.00;10.55;;;3.90;99.90;;;;;;5119306;28;20053;-67
2022/01/17 02:43:34;;;;;;;19.15;11.32;;;4.00;99.90;;;;;;5115353;28;20024;-68
2022/01/17 02:48:32;;;;;;;17.48;10.75;;;3.90;99.90;;;;;;5116151;28;20055;-67
2022/01/17 02:50:59;;;;;;;14.95;9.32;;;3.90;99.90;;;;;;5113847;28;20201;-68
2022/01/17 02:53:26;;;;;;;15.80;9.80;;;3.90;99.90;;;;;;5115373;28;20089;-68
2022/01/17 02:56:02;;;;;;;15.88;10.40;;;3.90;99.90;;;;;;5114017;28;20035;-68
2022/01/17 02:58:32;;;;;;;17.98;10.95;;;4.00;99.90;;;;;;5115520;28;20076;-67
2022/01/17 03:00:59;;;;;;;17.33;10.63;;;4.00;99.90;;;;;;5115327;28;20460;-68
2022/01/17 03:03:28;;;;;;;17.17;10.45;;;4.00;99.90;;;;;;5115568;28;20059;-67
2022/01/17 03:05:55;;;;;;;16.73;10.25;;;4.00;99.90;;;;;;5114892;28;20026;-68
2022/01/17 03:08:23;;;;;;;16.60;10.45;;;4.00;99.90;;;;;;5117359;28;20106;-68
2022/01/17 03:10:54;;;;;;;15.70;9.05;;;3.90;99.90;;;;;;5119805;28;20035;-69
2022/01/17 03:13:25;;;;;;;14.27;9.68;;;3.90;99.90;;;;;;5119112;28;20031;-69
2022/01/17 03:15:57;;;;;;;16.52;10.35;;;3.90;99.90;;;;;;5117373;28;20030;-67
2022/01/17 03:18:25;;;;;;;15.60;9.80;;;3.90;99.90;;;;;;5115993;28;20096;-68
2022/01/17 03:20:51;;;;;;;17.55;10.20;;;3.90;99.90;;;;;;5115762;27;20110;-68
2022/01/17 03:23:17;;;;;;;14.80;8.85;;;3.90;99.90;;;;;;5116108;28;20109;-69
2022/01/17 03:25:43;;;;;;;18.13;9.82;;;3.90;99.90;;;;;;5114554;28;20473;-68
2022/01/17 03:28:09;;;;;;;17.35;10.50;;;3.90;99.90;;;;;;5114695;28;20035;-69
2022/01/17 03:30:35;;;;;;;13.23;8.70;;;3.80;99.90;;;;;;5115763;28;20028;-67
2022/01/17 03:33:02;;;;;;;14.15;8.90;;;3.80;99.90;;;;;;5115576;28;20066;-69
2022/01/17 03:35:28;;;;;;;17.38;9.35;;;3.80;99.90;;;;;;5116404;28;20027;-68
2022/01/17 03:37:53;;;;;;;14.90;9.63;;;3.90;99.90;;;;;;5117483;28;20486;-68
2022/01/17 03:40:19;;;;;;;15.75;9.75;;;3.90;99.90;;;;;;5115858;28;20119;-67
2022/01/17 03:42:45;;;;;;;16.23;9.55;;;3.90;99.90;;;;;;5114320;28;20381;-67
2022/01/17 03:45:12;;;;;;;18.70;10.02;;;3.80;99.90;;;;;;5114985;28;20034;-68
2022/01/17 03:47:40;;;;;;;16.65;9.23;;;3.80;99.90;;;;;;5115804;28;20027;-68
2022/01/17 03:50:10;;;;;;;17.02;9.45;;;3.80;99.90;;;;;;5114231;28;20425;-67
2022/01/17 03:52:35;;;;;;;16.60;10.80;;;3.80;99.90;;;;;;5112937;28;20035;-69
2022/01/17 03:55:01;;;;;;;16.33;8.88;;;3.90;99.90;;;;;;5113915;28;20218;-68
2022/01/17 03:57:27;;;;;;;17.90;9.60;;;3.90;99.90;;;;;;5115133;28;20106;-67
2022/01/17 03:59:53;;;;;;;13.23;8.35;;;3.90;99.90;;;;;;5112800;28;20472;-68
2022/01/17 04:02:18;;;;;;;15.10;9.07;;;3.90;99.90;;;;;;5114477;28;20034;-67
2022/01/17 04:04:44;;;;;;;16.67;9.82;;;3.80;99.90;;;;;;5114038;28;20035;-67
2022/01/17 04:07:10;;;;;;;15.43;9.57;;;3.80;99.90;;;;;;5113983;28;20023;-67
2022/01/17 04:09:35;;;;;;;13.20;9.18;;;3.90;99.90;;;;;;5115275;28;20392;-69
2022/01/17 04:12:01;;;;;;;17.85;9.43;;;3.80;99.90;;;;;;5115491;28;20019;-67
2022/01/17 04:14:27;;;;;;;15.68;9.40;;;3.90;99.90;;;;;;5114764;28;20461;-68
2022/01/17 04:16:53;;;;;;;15.75;9.02;;;3.90;99.90;;;;;;5114050;28;20034;-68
2022/01/17 04:19:19;;;;;;;13.23;8.60;;;4.00;99.90;;;;;;5114818;28;20124;-67
2022/01/17 04:21:47;;;;;;;15.32;9.35;;;3.90;99.90;;;;;;5111809;28;20034;-65
2022/01/17 04:24:14;;;;;;;13.75;8.23;;;4.00;99.90;;;;;;5113977;28;20031;-67
2022/01/17 04:26:39;;;;;;;13.30;8.43;;;3.90;99.90;;;;;;5112576;28;20031;-68
2022/01/17 04:29:05;;;;;;;14.45;8.70;;;3.90;99.90;;;;;;5113619;28;20035;-67
2022/01/17 04:31:31;;;;;;;13.48;7.60;;;4.00;99.90;;;;;;5114554;28;20030;-68
2022/01/17 04:33:57;;;;;;;14.50;8.02;;;4.00;99.90;;;;;;5115193;28;20027;-69
2022/01/17 04:36:23;;;;;;;14.00;8.82;;;4.00;99.90;;;;;;5112676;28;20057;-68
2022/01/17 04:38:48;;;;;;;13.48;8.10;;;4.00;99.90;;;;;;5114192;28;20027;-69
2022/01/17 04:41:18;;;;;;;14.93;9.55;;;4.00;99.90;;;;;;5115865;28;20423;-68
2022/01/17 04:43:57;;;;;;;12.48;8.07;;;4.00;99.90;;;;;;5116533;28;20372;-68
2022/01/17 04:46:24;;;;;;;13.52;7.82;;;4.00;99.90;;;;;;5115950;28;20020;-68
2022/01/17 04:48:49;;;;;;;14.20;8.85;;;4.00;99.90;;;;;;5117475;28;20059;-69
2022/01/17 04:51:15;;;;;;;14.35;8.43;;;4.00;99.90;;;;;;5117329;28;20026;-68
2022/01/17 04:53:42;;;;;;;12.07;7.57;;;4.00;99.90;;;;;;5118288;28;20050;-68
2022/01/17 04:56:08;;;;;;;11.80;8.30;;;4.00;99.90;;;;;;5117653;28;20404;-68
2022/01/17 04:58:34;;;;;;;14.02;8.38;;;3.90;99.90;;;;;;5115891;28;20088;-67
2022/01/17 05:00:59;;;;;;;13.73;9.48;;;3.90;99.90;;;;;;5114171;28;20052;-69
2022/01/17 05:03:26;;;;;;;11.05;6.97;;;4.00;99.90;;;;;;5113350;28;20111;-68
2022/01/17 05:05:52;;;;;;;11.82;8.10;;;3.90;99.90;;;;;;5112749;28;20078;-68
2022/01/17 05:08:18;;;;;;;14.50;8.00;;;4.00;99.90;;;;;;5113314;28;20075;-68
2022/01/17 05:10:54;;;;;;;12.98;7.30;;;4.10;99.90;;;;;;5115060;28;20036;-69
2022/01/17 05:13:25;;;;;;;10.10;6.97;;;4.10;99.90;;;;;;5117491;28;20019;-68
2022/01/17 05:16:04;;;;;;;14.35;7.70;;;4.20;99.90;;;;;;5115245;28;20122;-69
2022/01/17 05:21:02;;;;;;;12.63;6.88;;;4.30;99.90;;;;;;5114568;28;20035;-70
2022/01/17 05:23:28;;;;;;;12.30;7.13;;;4.30;99.90;;;;;;5112961;28;20047;-69
2022/01/17 05:25:53;;;;;;;10.88;6.22;;;4.30;99.90;;;;;;5114264;28;20038;-68
2022/01/17 05:28:22;;;;;;;11.02;7.07;;;4.40;99.90;;;;;;5114016;28;20028;-70
2022/01/17 05:30:48;;;;;;;13.30;6.93;;;4.30;99.90;;;;;;5113899;28;20461;-72
2022/01/17 05:33:13;;;;;;;8.55;6.10;;;4.40;99.90;;;;;;5117166;27;20049;-68
2022/01/17 05:35:39;;;;;;;9.63;6.15;;;4.40;99.90;;;;;;5117800;28;20082;-68
2022/01/17 05:38:05;;;;;;;11.35;6.40;;;4.50;99.90;;;;;;5118584;28;20024;-68
2022/01/17 05:40:31;;;;;;;10.35;6.40;;;4.40;99.90;;;;;;5116313;28;20435;-68
2022/01/17 05:42:56;;;;;;;10.40;6.40;;;4.40;99.90;;;;;;5117173;28;20090;-69
2022/01/17 05:45:22;;;;;;;9.52;6.47;;;4.40;99.90;;;;;;5117677;28;20026;-67
2022/01/17 05:47:48;;;;;;;11.77;7.15;;;4.40;99.90;;;;;;5116140;28;20052;-67
2022/01/17 05:50:15;;;;;;;11.40;7.10;;;4.30;99.90;;;;;;5116189;28;20076;-67
2022/01/17 05:52:41;;;;;;;11.07;7.05;;;4.20;99.90;;;;;;5116982;28;20026;-68
2022/01/17 05:55:09;;;;;;;12.80;6.85;;;4.30;99.90;;;;;;5117207;28;20114;-68
2022/01/17 05:57:35;;;;;;;14.52;7.82;;;4.30;99.90;;;;;;5117591;28;20032;-67
2022/01/17 06:00:02;;;;;;;13.63;7.32;;;4.40;99.90;;;;;;5116914;28;20019;-67
2022/01/17 06:02:28;;;;;;;9.23;6.50;;;4.40;99.90;;;;;;5115406;28;20034;-67
2022/01/17 06:04:54;;;;;;;11.35;6.40;;;4.50;99.90;;;;;;5115702;28;20031;-69
2022/01/17 06:07:20;;;;;;;14.05;6.45;;;4.50;99.90;;;;;;5116568;28;20023;-68
2022/01/17 06:09:45;;;;;;;9.65;6.30;;;4.50;99.90;;;;;;5116691;28;20535;-69
2022/01/17 06:12:12;;;;;;;13.82;7.35;;;4.50;99.90;;;;;;5115089;28;20072;-69
2022/01/17 06:14:39;;;;;;;14.02;6.75;;;4.60;99.90;;;;;;5115008;28;20034;-69
2022/01/17 06:17:04;;;;;;;11.18;5.82;;;4.60;99.90;;;;;;5116423;28;20031;-69
2022/01/17 06:19:30;;;;;;;12.65;6.05;;;4.50;99.90;;;;;;5117425;28;20338;-69
2022/01/17 06:21:56;;;;;;;9.35;6.28;;;4.60;99.90;;;;;;5117109;28;20149;-69
2022/01/17 06:24:23;;;;;;;11.30;6.57;;;4.70;99.90;;;;;;5116388;28;20035;-68
2022/01/17 06:26:49;;;;;;;9.55;5.53;;;4.60;99.90;;;;;;5116683;28;20388;-68
2022/01/17 06:29:15;;;;;;;11.32;6.55;;;4.50;99.90;;;;;;5116000;28;20019;-68
2022/01/17 06:31:43;;;;;;;7.97;5.32;;;4.50;99.90;;;;;;5117551;28;20023;-68
2022/01/17 06:34:09;;;;;;;8.85;5.60;;;4.50;99.90;;;;;;5116662;28;20038;-67
2022/01/17 06:36:36;;;;;;;8.38;5.00;;;4.50;99.90;;;;;;5115230;28;20178;-68
2022/01/17 06:39:04;;;;;;;7.78;5.25;;;4.50;99.90;;;;;;5115615;28;20485;-68
2022/01/17 06:41:30;;;;;;;11.07;7.03;;;4.50;99.90;;;;;;5117028;28;20035;-69
2022/01/17 06:43:56;;;;;;;9.00;5.40;;;4.40;99.90;;;;;;5115614;28;20393;-68
2022/01/17 06:46:22;;;;;;;9.40;5.82;;;4.50;99.90;;;;;;5115452;28;20053;-69
2022/01/17 06:48:48;;;;;;;9.57;6.53;;;4.50;99.90;;;;;;5115462;28;20380;-70
2022/01/17 06:51:17;;;;;;;9.30;5.63;;;4.50;99.90;;;;;;5114452;28;20023;-70
2022/01/17 06:53:43;;;;;;;9.40;6.63;;;4.60;99.90;;;;;;5114523;28;20040;-70
2022/01/17 06:56:10;;;;;;;9.55;5.72;;;4.60;99.90;;;;;;5117018;28;20117;-71
2022/01/17 06:58:36;;;;;;;9.65;6.53;;;4.60;99.90;;;;;;5117594;28;20032;-69
2022/01/17 07:01:04;;;;;;;11.68;6.20;;;4.60;99.90;;;;;;5115709;28;20484;-71
2022/01/17 07:03:30;;;;;;;8.40;5.93;;;4.50;99.90;;;;;;5117062;28;20035;-69
2022/01/17 07:05:56;;;;;;;9.40;5.30;;;4.50;99.90;;;;;;5117687;28;20047;-69
2022/01/17 07:08:21;;;;;;;9.85;5.88;;;4.40;99.90;;;;;;5115287;28;20361;-69
2022/01/17 07:10:47;;;;;;;10.07;5.65;;;4.30;99.90;;;;;;5115089;28;20024;-69
2022/01/17 07:13:13;;;;;;;11.98;6.93;;;4.30;99.90;;;;;;5114967;28;20027;-69
2022/01/17 07:15:38;;;;;;;8.73;6.13;;;4.30;99.90;;;;;;5115627;28;20067;-69
2022/01/17 07:18:06;;;;;;;9.15;6.20;;;4.20;99.90;;;;;;5113573;28;20469;-69
2022/01/17 07:20:32;;;;;;;13.10;7.07;;;4.30;99.90;;;;;;5115646;28;20016;-69
2022/01/17 07:22:57;;;;;;;9.15;6.50;;;4.30;99.90;;;;;;5113502;28;20054;-69
2022/01/17 07:25:23;;;;;;;9.25;5.75;;;4.30;99.90;;;;;;5115685;28;20110;-69
2022/01/17 07:27:49;;;;;;;10.45;6.30;;;4.30;99.90;;;;;;5115540;28;20110;-69
2022/01/17 07:30:14;;;;;;;10.32;6.20;;;4.30;99.90;;;;;;5114973;28;20480;-70
2022/01/17 07:32:40;;;;;;;9.20;6.40;;;4.20;99.90;;;;;;5116843;28;20030;-68
2022/01/17 07:35:07;;;;;;;9.70;6.57;;;4.20;99.90;;;;;;5115903;28;20035;-69
2022/01/17 07:37:33;;;;;;;9.80;6.35;;;4.20;99.90;;;;;;5115667;28;20035;-71
2022/01/17 07:39:59;;;;;;;9.63;5.88;;;4.10;99.90;;;;;;5113863;28;20492;-69
2022/01/17 07:42:25;;;;;;;9.73;6.25;;;4.20;99.90;;;;;;5113772;28;20035;-68
2022/01/17 07:44:55;;;;;;;10.55;6.30;;;4.20;99.90;;;;;;5114079;28;20034;-69
2022/01/17 07:47:41;;;;;;;11.68;6.50;;;4.20;99.90;;;;;;5113786;28;20030;-69
2022/01/17 07:50:10;;;;;;;9.38;5.90;;;4.40;99.90;;;;;;5114165;28;20059;-72
2022/01/17 07:52:36;;;;;;;9.65;5.47;;;4.40;99.90;;;;;;5114780;28;20032;-68
2022/01/17 07:55:02;;;;;;;10.40;5.93;;;4.50;99.90;;;;;;5114660;28;20078;-70
2022/01/17 07:57:28;;;;;;;9.73;5.63;;;4.50;99.90;;;;;;5113247;28;20480;-70
2022/01/17 07:59:54;;;;;;;9.75;6.63;;;4.50;99.90;;;;;;5113366;28;20038;-69
2022/01/17 08:02:19;;;;;;;10.32;6.03;;;4.50;99.90;;;;;;5113680;28;20024;-69
2022/01/17 08:04:45;;;;;;;10.32;5.50;;;4.50;99.90;;;;;;5114494;28;20057;-70
2022/01/17 08:07:11;;;;;;;9.75;5.95;;;4.60;99.90;;;;;;5115590;28;20027;-70
2022/01/17 08:09:36;;;;;;;8.85;5.25;;;4.60;99.90;;;;;;5114298;28;20035;-70
2022/01/17 08:12:05;;;;;;;8.25;5.07;;;4.60;99.90;;;;;;5113810;28;20061;-70
2022/01/17 08:14:31;;;;;;;12.25;6.45;;;4.70;99.90;;;;;;5113678;28;20085;-68
2022/01/17 08:16:57;;;;;;;11.25;5.65;;;4.70;99.90;;;;;;5114269;28;20031;-69
2022/01/17 08:19:24;;;;;;;11.30;6.32;;;4.80;99.90;;;;;;5115148;28;20019;-68
2022/01/17 08:21:52;;;;;;;7.07;5.10;;;4.80;99.90;;;;;;5116548;28;20539;-69
2022/01/17 08:24:21;;;;;;;7.35;5.28;;;4.90;99.90;;;;;;5115168;28;20228;-70
2022/01/17 08:26:47;;;;;;;8.80;5.47;;;4.90;99.90;;;;;;5114551;28;20472;-70
2022/01/17 08:29:13;;;;;;;8.13;5.70;;;5.00;99.90;;;;;;5113720;28;20016;-69
2022/01/17 08:31:42;;;;;;;9.50;5.90;;;5.00;99.90;;;;;;5113588;28;20053;-69
2022/01/17 08:34:10;;;;;;;8.27;5.95;;;5.10;99.90;;;;;;5113349;28;20362;-69
2022/01/17 08:36:35;;;;;;;10.95;5.75;;;5.20;99.90;;;;;;5116521;28;20081;-73
2022/01/17 08:39:01;;;;;;;8.95;5.30;;;5.20;99.90;;;;;;5114371;28;20423;-72
2022/01/17 08:41:27;;;;;;;8.40;5.05;;;5.30;99.90;;;;;;5112468;28;20051;-68
2022/01/17 08:43:52;;;;;;;11.77;5.40;;;5.20;99.90;;;;;;5113437;28;20522;-68
2022/01/17 08:46:18;;;;;;;9.23;6.22;;;5.30;99.90;;;;;;5111632;28;20023;-69
2022/01/17 08:48:44;;;;;;;6.88;4.90;;;5.30;99.90;;;;;;5113694;28;20492;-68
2022/01/17 08:51:09;;;;;;;13.07;6.50;;;5.30;99.90;;;;;;5115210;28;20107;-69
2022/01/17 08:53:36;;;;;;;9.38;5.50;;;5.30;99.90;;;;;;5118000;28;20031;-69
2022/01/17 08:56:02;;;;;;;8.55;6.10;;;5.20;99.90;;;;;;5114277;28;20047;-68
2022/01/17 08:58:27;;;;;;;10.05;5.80;;;5.30;99.90;;;;;;5111827;28;20111;-67
2022/01/17 09:00:54;;;;;;;7.70;5.65;;;5.40;99.90;;;;;;5112240;28;20122;-70
2022/01/17 09:03:21;;;;;;;11.93;5.90;;;5.30;99.90;;;;;;5112729;28;20457;-69
2022/01/17 09:05:48;;;;;;;11.07;5.38;;;5.40;99.90;;;;;;5112468;28;20453;-69
2022/01/17 09:08:14;;;;;;;8.32;5.50;;;5.40;99.90;;;;;;5117184;28;20027;-69
2022/01/17 09:10:39;;;;;;;13.32;5.90;;;5.40;99.90;;;;;;5116464;28;20034;-69
2022/01/17 09:13:07;;;;;;;11.57;5.95;;;5.40;99.90;;;;;;5100193;28;20106;-70
2022/01/17 09:15:33;;;;;;;10.52;5.80;;;5.50;99.90;;;;;;5119536;28;20448;-67
2022/01/17 09:18:02;;;;;;;9.75;6.45;;;5.50;99.90;;;;;;5119517;28;20032;-68
2022/01/17 09:20:30;;;;;;;10.32;5.85;;;5.60;99.90;;;;;;5117452;28;20450;-68
2022/01/17 09:22:55;;;;;;;10.20;5.82;;;5.60;99.90;;;;;;5116371;28;20471;-68
2022/01/17 09:25:21;;;;;;;8.30;5.57;;;5.60;99.90;;;;;;5117548;28;20314;-69
2022/01/17 09:27:47;;;;;;;7.68;5.30;;;5.60;99.90;;;;;;5116757;28;20062;-74
2022/01/17 09:30:15;;;;;;;9.32;5.40;;;5.60;99.90;;;;;;5117579;28;20461;-68
2022/01/17 09:32:41;;;;;;;9.82;5.40;;;5.70;99.90;;;;;;5116684;28;20020;-68
2022/01/17 09:35:09;;;;;;;6.43;4.95;;;5.70;99.90;;;;;;5115929;28;20031;-67
2022/01/17 09:37:35;;;;;;;8.75;6.40;;;5.60;99.90;;;;;;5117575;27;20047;-69
2022/01/17 09:40:01;;;;;;;7.45;4.82;;;5.60;99.90;;;;;;5118839;27;20027;-68
2022/01/17 09:42:27;;;;;;;9.98;5.53;;;5.60;99.90;;;;;;5116205;28;20020;-70
2022/01/17 09:44:53;;;;;;;8.05;5.18;;;5.60;99.90;;;;;;5118811;28;20038;-70
2022/01/17 09:47:19;;;;;;;8.45;5.68;;;5.70;99.90;;;;;;5117397;28;20408;-69
2022/01/17 09:49:55;;;;;;;11.50;5.57;;;5.70;99.90;;;;;;5118285;28;20043;-69
2022/01/17 09:52:34;;;;;;;12.52;5.53;;;5.80;99.90;;;;;;5116730;28;20020;-70
2022/01/17 09:55:21;;;;;;;8.27;4.50;;;5.80;99.90;;;;;;5119793;28;20036;-69
2022/01/17 09:57:53;;;;;;;8.77;5.28;;;5.80;99.90;;;;;;5117364;28;20031;-68
2022/01/17 10:00:26;;;;;;;12.40;5.40;;;5.80;99.90;;;;;;5117540;28;20036;-68
2022/01/17 10:02:54;;;;;;;10.20;5.05;;;5.80;99.90;;;;;;5116037;28;20035;-68
2022/01/17 10:05:21;;;;;;;9.70;5.43;;;5.90;99.90;;;;;;5116117;28;20062;-70
2022/01/17 10:07:53;;;;;;;11.30;5.32;;;5.90;99.90;;;;;;5115411;28;20376;-69
2022/01/17 10:10:42;;;;;;;7.90;5.30;;;5.90;99.90;;;;;;5114877;28;20027;-69
2022/01/17 10:13:11;;;;;;;7.85;5.45;;;6.00;99.90;;;;;;5116378;28;20135;-68
2022/01/17 10:15:46;;;;;;;9.90;5.60;;;6.00;99.90;;;;;;5116799;28;20066;-69
2022/01/17 10:18:41;;;;;;;11.57;5.82;;;5.90;99.90;;;;;;5116031;28;20019;-69
2022/01/17 10:21:31;;;;;;;11.98;5.32;;;6.00;99.90;;;;;;5108647;28;20032;-70
2022/01/17 10:24:12;;;;;;;10.02;5.07;;;6.00;99.90;;;;;;5116412;28;20059;-68
2022/01/17 10:35:20;;;;;;;10.20;5.22;;;6.10;99.90;;;;;;5121030;28;20042;-70
2022/01/17 10:38:15;;;;;;;10.77;5.75;;;6.10;99.90;;;;;;5119220;28;20020;-72
2022/01/17 10:40:50;;;;;;;6.93;4.53;;;6.10;99.90;;;;;;5114631;27;20042;-70
2022/01/17 10:43:42;;;;;;;7.65;4.93;;;6.10;99.90;;;;;;5136904;27;20020;-73
2022/01/17 10:46:10;;;;;;;6.75;4.90;;;6.00;99.90;;;;;;5119612;28;20031;-67
2022/01/17 10:48:45;;;;;;;8.68;5.07;;;6.00;99.90;;;;;;5119840;28;20088;-68
2022/01/17 10:51:12;;;;;;;7.40;5.07;;;6.00;99.90;;;;;;5114832;28;20110;-70
2022/01/17 10:53:40;;;;;;;9.52;4.97;;;6.00;99.90;;;;;;5115280;28;20032;-69
2022/01/17 10:56:08;;;;;;;12.50;5.88;;;6.00;99.90;;;;;;5115288;28;20035;-69
2022/01/17 10:58:37;;;;;;;8.45;4.82;;;6.00;99.90;;;;;;5115558;28;20038;-71
2022/01/17 11:01:12;;;;;;;9.10;4.95;;;6.00;99.90;;;;;;5116962;27;20030;-69
2022/01/17 11:03:41;;;;;;;6.88;4.45;;;6.10;99.90;;;;;;5122737;27;20031;-70
2022/01/17 11:06:10;;;;;;;10.27;5.25;;;6.10;99.90;;;;;;5124877;27;20049;-72
2022/01/17 11:08:38;;;;;;;9.32;5.85;;;6.10;99.90;;;;;;5114789;27;20042;-63
2022/01/17 11:11:07;;;;;;;11.18;5.63;;;7.50;99.90;;;;;;5135743;27;20084;-73
2022/01/17 11:13:38;;;;;;;8.57;5.47;;;8.60;99.90;;;;;;5133823;27;20023;-69
2022/01/17 11:16:11;;;;;;;8.32;4.30;;;7.40;99.90;;;;;;5135151;27;20030;-69
2022/01/17 11:18:38;;;;;;;12.73;4.78;;;7.20;99.90;;;;;;5123465;27;20106;-70
2022/01/17 11:21:17;;;;;;;7.75;4.32;;;7.60;99.90;;;;;;5113867;28;20114;-74
2022/01/17 11:23:47;;;;;;;7.35;4.30;;;7.60;99.90;;;;;;5117369;27;20055;-68
2022/01/17 11:26:13;;;;;;;12.82;4.47;;;7.80;99.90;;;;;;5112868;28;20031;-69
2022/01/17 11:28:40;;;;;;;9.95;6.05;;;8.00;99.90;;;;;;5112956;28;20023;-70
2022/01/17 11:31:12;;;;;;;11.15;4.75;;;7.90;99.90;;;;;;5129424;27;20103;-70
2022/01/17 11:33:38;;;;;;;9.88;4.43;;;7.60;99.90;;;;;;5132557;27;20057;-70
2022/01/17 11:36:04;;;;;;;9.57;4.95;;;7.40;99.90;;;;;;5135426;27;20023;-71
2022/01/17 11:38:40;;;;;;;10.30;4.95;;;7.20;99.90;;;;;;5135105;27;20023;-67
2022/01/17 11:41:06;;;;;;;10.60;4.95;;;7.10;99.90;;;;;;5134812;27;20019;-70
2022/01/17 11:43:37;;;;;;;8.45;4.47;;;7.20;99.90;;;;;;5133948;27;20106;-69
2022/01/17 11:46:18;;;;;;;7.05;4.45;;;7.00;99.90;;;;;;5133784;27;20096;-69
2022/01/17 11:49:04;;;;;;;12.20;4.93;;;7.10;99.90;;;;;;5134591;27;20023;-70
2022/01/17 11:51:40;;;;;;;13.10;5.38;;;6.90;99.90;;;;;;5133038;27;20031;-67
2022/01/17 11:54:29;;;;;;;10.60;4.53;;;7.00;99.90;;;;;;5134801;27;20437;-70
2022/01/17 11:56:57;;;;;;;6.60;4.57;;;7.00;99.90;;;;;;5121975;27;20126;-68
2022/01/17 11:59:34;;;;;;;9.02;4.65;;;6.90;99.90;;;;;;5133792;27;20030;-68
2022/01/17 12:02:18;;;;;;;7.40;4.32;;;6.90;99.90;;;;;;5134279;27;20023;-69
2022/01/17 12:05:07;;;;;;;8.80;4.90;;;7.10;99.90;;;;;;5135082;27;20027;-68
2022/01/17 12:07:40;;;;;;;8.75;4.93;;;7.10;99.90;;;;;;5093672;27;20035;-68
2022/01/17 12:10:18;;;;;;;12.10;5.38;;;7.10;99.90;;;;;;5133405;27;20047;-67
2022/01/17 12:13:14;;;;;;;10.90;5.30;;;7.10;99.90;;;;;;5134206;27;20394;-67
2022/01/17 12:16:06;;;;;;;9.90;5.35;;;7.10;99.90;;;;;;5132454;27;20042;-67
2022/01/17 12:18:35;;;;;;;10.50;4.63;;;7.10;99.90;;;;;;5132568;27;20041;-69
2022/01/17 12:21:28;;;;;;;12.13;5.13;;;7.10;99.90;;;;;;5134539;27;20114;-69
2022/01/17 12:24:16;;;;;;;12.35;5.53;;;7.10;99.90;;;;;;5133069;27;20043;-68
2022/01/17 12:27:03;;;;;;;8.77;4.60;;;7.10;99.90;;;;;;5133368;27;20023;-69
2022/01/17 12:29:41;;;;;;;10.60;4.55;;;7.10;99.90;;;;;;5133509;27;20468;-70
2022/01/17 12:32:19;;;;;;;8.05;4.80;;;7.20;99.90;;;;;;5136732;27;20031;-72
2022/01/17 12:34:45;;;;;;;12.70;5.95;;;7.20;99.90;;;;;;5135649;27;20027;-69
2022/01/17 12:37:50;;;;;;;13.55;4.90;;;7.30;99.90;;;;;;5134846;27;20026;-71
2022/01/17 12:40:18;;;;;;;8.95;4.43;;;7.40;99.90;;;;;;5091497;27;20027;-68
2022/01/17 12:42:59;;;;;;;18.08;5.07;;;7.60;99.90;;;;;;5132513;27;20024;-68
2022/01/17 12:45:26;;;;;;;14.80;5.50;;;7.90;99.90;;;;;;5132162;27;20066;-69
2022/01/17 12:47:56;;;;;;;14.35;6.10;;;8.00;99.90;;;;;;5132572;27;20031;-69
2022/01/17 12:50:23;;;;;;;10.73;5.70;;;8.00;99.90;;;;;;5133687;27;20072;-68
2022/01/17 12:52:53;;;;;;;11.75;4.53;;;8.10;99.90;;;;;;5132648;27;20072;-69
2022/01/17 12:55:20;;;;;;;12.70;5.78;;;8.10;99.90;;;;;;5131997;28;20064;-69
2022/01/17 12:57:47;;;;;;;18.02;5.18;;;8.10;99.90;;;;;;5134150;27;20043;-68
2022/01/17 13:00:19;;;;;;;6.35;4.40;;;8.10;99.90;;;;;;5134713;27;20038;-70
2022/01/17 13:02:48;;;;;;;;;;;8.10;99.90;;;;;;5134193;27;20023;-69
2022/01/17 13:05:20;;;;;;;7.93;5.18;;;8.00;99.90;;;;;;5131934;28;19903;-69
2022/01/17 13:07:45;;;;;;;9.77;5.45;;;8.10;99.90;;;;;;5134152;28;20111;-69
2022/01/17 13:10:11;;;;;;;10.02;4.82;;;8.00;99.90;;;;;;5134607;28;20027;-69
2022/01/17 13:12:42;;;;;;;11.90;5.20;;;8.00;99.90;;;;;;5134151;27;20023;-70
2022/01/17 13:15:09;;;;;;;10.80;5.22;;;8.00;99.90;;;;;;5134368;27;20035;-69
2022/01/17 13:17:36;;;;;;;10.10;5.50;;;7.90;99.90;;;;;;5133288;28;20066;-71
2022/01/17 13:20:03;;;;;;;10.57;5.28;;;7.90;99.90;;;;;;5134670;27;20023;-70
2022/01/17 13:22:37;;;;;;;16.35;6.15;;;7.80;99.90;;;;;;5132290;28;20107;-68